Time;durP1;ratioP1;P1;durP2;ratioP2;P2;SDS_P1;SDS_P2;PMS_P1;PMS_P2;Temp;Humidity;BMP_temperature;BMP_pressure;BME280_temperature;BME280_humidity;BME280_pressure;Samples;Min_cycle;Max_cycle;Signal;HPM_P1;HPM_P2
2024/04/17 00:00:43;;;;;;;3.10;1.27;;;8.30;99.90;;;;;;5349336;26;20001;-77
2024/04/17 00:03:10;;;;;;;1.20;1.10;;;8.30;99.90;;;;;;5349036;26;20329;-77
2024/04/17 00:05:36;;;;;;;1.90;1.30;;;8.20;99.90;;;;;;5348073;26;20008;-77
2024/04/17 00:08:01;;;;;;;2.45;1.48;;;8.30;99.90;;;;;;5318976;26;19993;-77
2024/04/17 00:10:27;;;;;;;3.40;1.27;;;8.20;99.90;;;;;;5318273;26;20346;-76
2024/04/17 00:12:53;;;;;;;2.22;1.25;;;8.30;99.90;;;;;;5349416;26;19993;-77
2024/04/17 00:15:18;;;;;;;3.60;1.58;;;8.30;99.90;;;;;;5318034;26;20005;-76
2024/04/17 00:17:44;;;;;;;1.50;1.20;;;8.30;99.90;;;;;;5318819;26;20334;-77
2024/04/17 00:20:09;;;;;;;2.38;1.40;;;8.30;99.90;;;;;;5349144;26;20004;-77
2024/04/17 00:22:35;;;;;;;1.95;1.50;;;8.30;99.90;;;;;;5348336;26;19997;-77
2024/04/17 00:25:01;;;;;;;2.08;1.27;;;8.30;99.90;;;;;;5348953;26;20004;-77
2024/04/17 00:27:26;;;;;;;1.63;1.52;;;8.40;99.90;;;;;;5348235;26;20003;-77
2024/04/17 00:29:52;;;;;;;2.53;1.40;;;8.30;99.90;;;;;;5318508;26;20001;-75
2024/04/17 00:32:18;;;;;;;1.83;1.50;;;8.30;99.90;;;;;;5317846;26;20322;-76
2024/04/17 00:34:43;;;;;;;1.60;1.25;;;8.30;99.90;;;;;;5318260;26;20075;-76
2024/04/17 00:37:09;;;;;;;4.07;1.42;;;8.30;99.90;;;;;;5318497;26;19993;-76
2024/04/17 00:39:36;;;;;;;2.67;1.63;;;8.30;99.90;;;;;;5347994;26;20163;-76
2024/04/17 00:42:02;;;;;;;1.70;1.40;;;8.30;99.90;;;;;;5348907;26;20017;-76
2024/04/17 00:44:28;;;;;;;1.98;1.52;;;8.30;99.90;;;;;;5317091;26;19997;-76
2024/04/17 00:46:54;;;;;;;3.00;1.40;;;8.30;99.90;;;;;;5348640;26;20009;-76
2024/04/17 00:49:20;;;;;;;2.05;1.55;;;8.20;99.90;;;;;;5317324;26;20012;-76
2024/04/17 00:51:47;;;;;;;2.40;1.33;;;8.30;99.90;;;;;;5348684;26;19993;-77
2024/04/17 00:54:13;;;;;;;2.40;1.58;;;8.20;99.90;;;;;;5348445;26;20036;-77
2024/04/17 00:56:39;;;;;;;1.95;1.15;;;8.20;99.90;;;;;;5317551;26;20005;-76
2024/04/17 00:59:05;;;;;;;2.17;1.67;;;8.10;99.90;;;;;;5317719;26;20001;-76
2024/04/17 01:01:31;;;;;;;2.17;1.60;;;8.20;99.90;;;;;;5346841;26;20001;-77
2024/04/17 01:03:56;;;;;;;4.95;1.60;;;8.10;99.90;;;;;;5317781;26;19993;-77
2024/04/17 01:06:22;;;;;;;1.85;1.35;;;8.20;99.90;;;;;;5316948;26;19989;-76
2024/04/17 01:08:48;;;;;;;1.88;1.42;;;8.20;99.90;;;;;;5317829;26;19997;-76
2024/04/17 01:11:13;;;;;;;2.63;1.67;;;8.20;99.90;;;;;;5348326;26;20067;-76
2024/04/17 01:13:39;;;;;;;1.67;1.58;;;8.20;99.90;;;;;;5347728;26;20012;-76
2024/04/17 01:16:05;;;;;;;1.90;1.27;;;8.20;99.90;;;;;;5317698;26;20005;-76
2024/04/17 01:18:31;;;;;;;3.22;1.50;;;8.20;99.90;;;;;;5316924;26;20001;-76
2024/04/17 01:20:56;;;;;;;2.35;1.80;;;8.10;99.90;;;;;;5347940;26;20012;-76
2024/04/17 01:23:22;;;;;;;1.92;1.40;;;8.10;99.90;;;;;;5347252;26;19997;-76
2024/04/17 01:25:51;;;;;;;2.20;1.40;;;8.10;99.90;;;;;;5317641;26;20068;-76
2024/04/17 01:28:17;;;;;;;2.30;1.52;;;8.10;99.90;;;;;;5317202;26;20422;-76
2024/04/17 01:30:42;;;;;;;2.53;1.33;;;8.20;99.90;;;;;;5347057;26;20011;-76
2024/04/17 01:33:08;;;;;;;1.98;1.60;;;8.20;99.90;;;;;;5317122;26;20469;-75
2024/04/17 01:35:33;;;;;;;1.95;1.70;;;8.20;99.90;;;;;;5316412;26;20074;-76
2024/04/17 01:37:59;;;;;;;3.55;1.48;;;8.10;99.90;;;;;;5347671;26;20004;-76
2024/04/17 01:40:24;;;;;;;1.60;1.50;;;8.10;99.90;;;;;;5316725;26;20484;-75
2024/04/17 01:42:50;;;;;;;1.85;1.73;;;8.10;99.90;;;;;;5347530;26;20396;-75
2024/04/17 01:45:16;;;;;;;3.80;1.88;;;8.10;99.90;;;;;;5347657;26;20001;-75
2024/04/17 01:47:41;;;;;;;1.63;1.35;;;8.10;99.90;;;;;;5346968;26;20008;-75
2024/04/17 01:50:07;;;;;;;2.97;1.55;;;8.10;99.90;;;;;;5317393;26;20001;-76
2024/04/17 01:52:33;;;;;;;1.67;1.55;;;8.10;99.90;;;;;;5316754;26;20012;-76
2024/04/17 01:54:59;;;;;;;4.03;1.73;;;8.00;99.90;;;;;;5347679;26;20426;-76
2024/04/17 01:57:24;;;;;;;1.98;1.77;;;8.00;99.90;;;;;;5346903;26;19997;-76
2024/04/17 01:59:50;;;;;;;1.80;1.50;;;8.10;99.90;;;;;;5316905;26;19997;-76
2024/04/17 02:02:15;;;;;;;2.17;1.70;;;8.10;99.90;;;;;;5347607;26;20421;-75
2024/04/17 02:04:41;;;;;;;2.25;1.58;;;8.10;99.90;;;;;;5316425;26;20001;-76
2024/04/17 02:07:07;;;;;;;3.67;1.70;;;8.10;99.90;;;;;;5316873;26;20321;-75
2024/04/17 02:09:34;;;;;;;2.53;1.63;;;8.10;99.90;;;;;;5316394;26;20005;-76
2024/04/17 02:12:00;;;;;;;2.05;1.73;;;8.10;99.90;;;;;;5316824;26;20003;-76
2024/04/17 02:14:25;;;;;;;4.65;1.85;;;8.10;99.90;;;;;;5316313;26;19997;-75
2024/04/17 02:16:51;;;;;;;2.35;1.60;;;8.10;99.90;;;;;;5347206;26;20077;-76
2024/04/17 02:19:17;;;;;;;2.72;1.75;;;8.10;99.90;;;;;;5316737;26;20504;-76
2024/04/17 02:21:42;;;;;;;2.55;1.92;;;8.10;99.90;;;;;;5346567;26;20005;-76
2024/04/17 02:24:08;;;;;;;2.33;1.80;;;8.00;99.90;;;;;;5347146;26;19993;-75
2024/04/17 02:26:33;;;;;;;4.35;1.90;;;8.00;99.90;;;;;;5316421;26;20001;-76
2024/04/17 02:28:59;;;;;;;3.20;1.98;;;8.10;99.90;;;;;;5316635;26;19997;-75
2024/04/17 02:31:24;;;;;;;2.55;2.00;;;8.10;99.90;;;;;;5316247;26;19993;-76
2024/04/17 02:33:50;;;;;;;3.53;2.10;;;8.10;99.90;;;;;;5316713;26;20079;-76
2024/04/17 02:36:16;;;;;;;2.63;2.30;;;8.10;99.90;;;;;;5316481;26;20059;-75
2024/04/17 02:38:41;;;;;;;2.78;2.10;;;8.10;99.90;;;;;;5315692;26;20204;-76
2024/04/17 02:41:07;;;;;;;4.60;2.08;;;8.10;99.90;;;;;;5316624;26;20000;-75
2024/04/17 02:43:32;;;;;;;3.03;2.00;;;8.10;99.90;;;;;;5346302;26;20380;-76
2024/04/17 02:45:58;;;;;;;4.50;2.30;;;8.10;99.90;;;;;;5346796;26;20004;-76
2024/04/17 02:48:24;;;;;;;2.53;2.00;;;8.10;99.90;;;;;;5315709;26;20005;-76
2024/04/17 02:50:49;;;;;;;4.05;2.40;;;8.10;99.90;;;;;;5346767;26;20441;-76
2024/04/17 02:53:15;;;;;;;4.30;2.03;;;8.10;99.90;;;;;;5346865;26;20028;-75
2024/04/17 02:55:40;;;;;;;4.15;2.40;;;8.10;99.90;;;;;;5345974;26;20465;-76
2024/04/17 02:58:06;;;;;;;3.38;2.20;;;8.10;99.90;;;;;;5346632;26;20013;-76
2024/04/17 03:00:32;;;;;;;3.90;1.95;;;8.10;99.90;;;;;;5345781;26;19997;-76
2024/04/17 03:02:58;;;;;;;6.13;2.30;;;8.10;99.90;;;;;;5346226;26;20009;-76
2024/04/17 03:05:26;;;;;;;2.88;2.13;;;8.10;99.90;;;;;;5345803;26;19997;-76
2024/04/17 03:07:51;;;;;;;4.15;2.17;;;8.10;99.90;;;;;;5316462;26;19989;-76
2024/04/17 03:10:17;;;;;;;4.55;2.30;;;8.10;99.90;;;;;;5346669;26;20007;-76
2024/04/17 03:12:42;;;;;;;3.08;2.03;;;8.10;99.90;;;;;;5345798;26;20326;-76
2024/04/17 03:15:11;;;;;;;3.05;1.65;;;8.10;99.90;;;;;;5315895;26;19997;-76
2024/04/17 03:17:37;;;;;;;1.90;1.70;;;8.00;99.90;;;;;;5345506;26;19993;-76
2024/04/17 03:20:03;;;;;;;2.20;1.92;;;8.10;99.90;;;;;;5315770;26;20008;-76
2024/04/17 03:22:29;;;;;;;2.25;2.05;;;8.10;99.90;;;;;;5345765;26;20315;-76
2024/04/17 03:24:54;;;;;;;2.97;2.15;;;8.10;99.90;;;;;;5347264;26;20001;-76
2024/04/17 03:27:20;;;;;;;2.05;1.85;;;8.10;99.90;;;;;;5349472;26;20004;-76
2024/04/17 03:29:45;;;;;;;3.97;1.95;;;8.10;99.90;;;;;;5318560;26;20004;-76
2024/04/17 03:32:11;;;;;;;2.70;1.70;;;8.10;99.90;;;;;;5319217;26;20490;-76
2024/04/17 03:34:37;;;;;;;2.97;1.83;;;8.10;99.90;;;;;;5317743;26;20019;-76
2024/04/17 03:37:02;;;;;;;1.92;1.80;;;8.10;99.90;;;;;;5318685;26;20004;-76
2024/04/17 03:39:28;;;;;;;3.28;1.60;;;8.10;99.90;;;;;;5318341;26;20001;-76
2024/04/17 03:41:53;;;;;;;2.22;1.58;;;8.10;99.90;;;;;;5318824;26;20438;-76
2024/04/17 03:44:19;;;;;;;2.53;1.50;;;8.20;99.90;;;;;;5318961;26;20007;-76
2024/04/17 03:46:46;;;;;;;4.18;1.80;;;8.20;99.90;;;;;;5318046;26;20000;-76
2024/04/17 03:49:11;;;;;;;2.17;1.60;;;8.20;99.90;;;;;;5318509;26;19997;-76
2024/04/17 03:51:37;;;;;;;3.17;2.00;;;8.20;99.90;;;;;;5317950;26;20012;-76
2024/04/17 03:54:03;;;;;;;2.28;1.58;;;8.20;99.90;;;;;;5318947;26;20438;-76
2024/04/17 03:56:28;;;;;;;1.65;1.33;;;8.20;99.90;;;;;;5348550;26;20009;-76
2024/04/17 03:58:54;;;;;;;1.77;1.60;;;8.20;99.90;;;;;;5318539;26;20004;-76
2024/04/17 04:01:19;;;;;;;2.15;1.48;;;8.20;99.90;;;;;;5318629;26;20070;-76
2024/04/17 04:03:45;;;;;;;1.55;1.45;;;8.20;99.90;;;;;;5348427;26;20425;-76
2024/04/17 04:06:11;;;;;;;1.80;1.50;;;8.20;99.90;;;;;;5348920;26;19993;-76
2024/04/17 04:08:36;;;;;;;2.88;1.40;;;8.20;99.90;;;;;;5318465;26;20434;-77
2024/04/17 04:11:02;;;;;;;1.70;1.55;;;8.30;99.90;;;;;;5349960;26;20049;-77
2024/04/17 04:13:27;;;;;;;1.95;1.40;;;8.20;99.90;;;;;;5319074;26;20005;-76
2024/04/17 04:15:54;;;;;;;4.15;1.40;;;8.20;99.90;;;;;;5349658;26;20337;-77
2024/04/17 04:18:19;;;;;;;1.20;1.10;;;8.20;99.90;;;;;;5349610;26;19993;-76
2024/04/17 04:20:45;;;;;;;1.00;0.90;;;8.20;99.90;;;;;;5348607;26;20043;-77
2024/04/17 04:23:11;;;;;;;1.10;0.90;;;8.10;99.90;;;;;;5318557;26;20315;-76
2024/04/17 04:25:36;;;;;;;1.42;1.00;;;8.10;99.90;;;;;;5318043;26;20007;-76
2024/04/17 04:28:02;;;;;;;4.70;1.38;;;8.10;99.90;;;;;;5318621;26;19997;-76
2024/04/17 04:30:27;;;;;;;1.58;1.25;;;8.00;99.90;;;;;;5349129;26;20434;-76
2024/04/17 04:32:53;;;;;;;1.00;0.90;;;8.00;99.90;;;;;;5348346;26;19993;-76
2024/04/17 04:35:19;;;;;;;0.80;0.80;;;8.00;99.90;;;;;;5348886;26;20008;-77
2024/04/17 04:37:44;;;;;;;2.15;0.90;;;8.00;99.90;;;;;;5346891;26;20028;-76
2024/04/17 04:40:10;;;;;;;0.82;0.77;;;7.90;99.90;;;;;;5318388;26;20342;-76
2024/04/17 04:42:36;;;;;;;1.00;0.90;;;7.90;99.90;;;;;;5317594;26;19997;-76
2024/04/17 04:45:01;;;;;;;1.85;0.70;;;7.90;99.90;;;;;;5348529;26;20008;-76
2024/04/17 04:47:27;;;;;;;1.50;0.88;;;7.90;99.90;;;;;;5348968;26;19993;-76
2024/04/17 04:49:52;;;;;;;0.80;0.73;;;7.80;99.90;;;;;;5347910;26;20007;-76
2024/04/17 04:52:18;;;;;;;0.85;0.63;;;7.80;99.90;;;;;;5317713;26;20009;-77
2024/04/17 04:54:44;;;;;;;0.70;0.70;;;7.90;99.90;;;;;;5317752;26;20012;-76
2024/04/17 04:57:09;;;;;;;0.70;0.70;;;7.80;99.90;;;;;;5318369;26;20003;-76
2024/04/17 04:59:35;;;;;;;0.82;0.77;;;7.80;99.90;;;;;;5317208;26;20009;-76
2024/04/17 05:02:01;;;;;;;0.60;0.60;;;7.80;99.90;;;;;;5346665;26;20001;-76
2024/04/17 05:04:27;;;;;;;0.60;0.60;;;7.80;99.90;;;;;;5327228;26;20001;-76
2024/04/17 05:06:52;;;;;;;0.60;0.60;;;7.80;99.90;;;;;;5283485;27;20002;-77
2024/04/17 05:09:18;;;;;;;0.60;0.60;;;7.80;99.90;;;;;;5284044;27;20012;-76
2024/04/17 05:11:43;;;;;;;1.08;0.70;;;7.70;99.90;;;;;;5307258;26;19997;-76
2024/04/17 05:14:09;;;;;;;0.93;0.70;;;7.70;99.90;;;;;;5318244;26;20005;-77
2024/04/17 05:16:35;;;;;;;1.23;0.73;;;7.60;99.90;;;;;;5325795;26;19997;-76
2024/04/17 05:19:00;;;;;;;0.68;0.60;;;7.60;99.90;;;;;;5284259;27;20439;-76
2024/04/17 05:21:26;;;;;;;1.17;0.70;;;7.60;99.90;;;;;;5284025;27;20327;-76
2024/04/17 05:23:51;;;;;;;0.60;0.60;;;7.70;99.90;;;;;;5282826;27;20490;-76
2024/04/17 05:26:17;;;;;;;0.70;0.60;;;7.70;99.90;;;;;;5326386;26;20008;-76
2024/04/17 05:28:43;;;;;;;0.60;0.60;;;7.70;99.90;;;;;;5317084;26;20008;-76
2024/04/17 05:31:08;;;;;;;2.10;0.65;;;7.70;99.90;;;;;;5317574;26;19992;-76
2024/04/17 05:33:34;;;;;;;0.70;0.60;;;7.50;99.90;;;;;;5347214;26;20426;-76
2024/04/17 05:35:59;;;;;;;1.02;0.55;;;7.60;99.90;;;;;;5318086;26;20453;-77
2024/04/17 05:38:25;;;;;;;0.73;0.55;;;7.60;99.90;;;;;;5348144;26;20014;-76
2024/04/17 05:40:50;;;;;;;0.90;0.60;;;7.60;99.90;;;;;;5347226;26;20004;-76
2024/04/17 05:43:17;;;;;;;0.63;0.52;;;7.60;99.90;;;;;;5347499;26;20029;-75
2024/04/17 05:45:44;;;;;;;3.40;0.73;;;7.60;99.90;;;;;;5316933;26;20020;-77
2024/04/17 05:48:10;;;;;;;1.88;0.85;;;7.60;99.90;;;;;;5317207;26;20012;-76
2024/04/17 05:50:37;;;;;;;0.88;0.80;;;7.60;99.90;;;;;;5317087;26;19997;-76
2024/04/17 05:53:03;;;;;;;0.70;0.70;;;7.60;99.90;;;;;;5315687;26;20015;-77
2024/04/17 05:55:29;;;;;;;0.75;0.70;;;7.70;99.90;;;;;;5328295;26;19998;-76
2024/04/17 05:57:54;;;;;;;1.77;0.90;;;7.70;99.90;;;;;;5340099;26;19996;-77
2024/04/17 06:00:20;;;;;;;1.00;0.90;;;7.70;99.90;;;;;;5366400;26;20032;-76
2024/04/17 06:02:46;;;;;;;1.20;0.98;;;7.70;99.90;;;;;;5337210;26;20001;-76
2024/04/17 06:05:12;;;;;;;1.15;0.90;;;7.80;99.90;;;;;;5334587;26;20000;-76
2024/04/17 06:07:38;;;;;;;1.27;0.90;;;7.80;99.90;;;;;;5351370;26;20082;-77
2024/04/17 06:10:05;;;;;;;2.58;1.20;;;7.80;99.90;;;;;;5312935;27;20008;-76
2024/04/17 06:12:30;;;;;;;2.55;1.25;;;7.80;99.90;;;;;;5312644;27;20001;-75
2024/04/17 06:14:56;;;;;;;4.55;1.10;;;7.90;99.90;;;;;;5314286;26;20007;-76
2024/04/17 06:17:22;;;;;;;1.40;1.10;;;7.90;99.90;;;;;;5316739;26;19997;-76
2024/04/17 06:19:48;;;;;;;1.77;1.17;;;7.90;99.90;;;;;;5346224;26;19996;-76
2024/04/17 06:22:14;;;;;;;2.92;1.33;;;7.90;99.90;;;;;;5317027;26;20453;-76
2024/04/17 06:24:40;;;;;;;2.38;1.40;;;7.90;99.90;;;;;;5315968;26;20470;-76
2024/04/17 06:27:06;;;;;;;1.52;1.30;;;7.90;99.90;;;;;;5316692;26;19997;-76
2024/04/17 06:29:31;;;;;;;2.90;1.60;;;8.00;99.90;;;;;;5316763;26;19998;-76
2024/04/17 06:31:57;;;;;;;1.70;1.20;;;8.10;99.90;;;;;;5346213;26;19996;-76
2024/04/17 06:34:23;;;;;;;1.73;1.38;;;8.00;99.90;;;;;;5347038;26;19993;-76
2024/04/17 06:36:48;;;;;;;2.60;1.30;;;8.00;99.90;;;;;;5315807;26;20001;-76
2024/04/17 06:39:14;;;;;;;1.60;1.30;;;8.00;99.90;;;;;;5346881;26;20008;-76
2024/04/17 06:41:39;;;;;;;2.58;1.60;;;8.10;99.90;;;;;;5346230;26;19997;-76
2024/04/17 06:44:05;;;;;;;3.83;1.42;;;8.20;99.90;;;;;;5315990;26;20317;-76
2024/04/17 06:46:31;;;;;;;2.65;1.30;;;8.20;99.90;;;;;;5316158;26;20008;-76
2024/04/17 06:48:56;;;;;;;3.30;1.58;;;8.30;99.90;;;;;;5315908;26;20005;-77
2024/04/17 06:51:22;;;;;;;3.17;1.58;;;8.30;99.90;;;;;;5346867;26;20326;-77
2024/04/17 06:53:47;;;;;;;1.85;1.42;;;8.40;99.90;;;;;;5315816;26;20070;-77
2024/04/17 06:56:13;;;;;;;2.08;1.65;;;8.40;99.90;;;;;;5346626;26;20048;-76
2024/04/17 06:58:39;;;;;;;2.35;1.38;;;8.40;99.90;;;;;;5315119;26;20430;-77
2024/04/17 07:01:05;;;;;;;2.58;1.70;;;8.40;99.90;;;;;;5315389;26;20074;-76
2024/04/17 07:03:30;;;;;;;3.25;2.13;;;8.50;99.90;;;;;;5316131;26;20430;-76
2024/04/17 07:06:03;;;;;;;3.25;1.40;;;8.50;99.90;;;;;;5315430;26;19993;-76
2024/04/17 07:08:29;;;;;;;4.13;1.60;;;8.50;99.90;;;;;;5346725;26;20025;-76
2024/04/17 07:10:55;;;;;;;4.05;1.90;;;8.60;99.90;;;;;;5315654;26;20012;-76
2024/04/17 07:13:20;;;;;;;5.60;1.85;;;8.60;99.90;;;;;;5316092;26;20003;-76
2024/04/17 07:15:46;;;;;;;3.38;1.98;;;8.60;99.90;;;;;;5345746;26;19997;-76
2024/04/17 07:18:12;;;;;;;5.90;1.83;;;8.60;99.90;;;;;;5316223;26;19997;-76
2024/04/17 07:20:38;;;;;;;2.63;1.63;;;8.70;99.90;;;;;;5346760;26;19997;-76
2024/04/17 07:23:04;;;;;;;4.72;2.15;;;8.70;99.90;;;;;;5316194;26;20001;-76
2024/04/17 07:25:29;;;;;;;2.38;1.90;;;8.70;99.90;;;;;;5346386;26;20003;-76
2024/04/17 07:27:55;;;;;;;4.20;1.88;;;8.70;99.90;;;;;;5345465;26;20011;-77
2024/04/17 07:30:20;;;;;;;4.07;1.83;;;8.70;99.90;;;;;;5315672;26;20385;-76
2024/04/17 07:32:46;;;;;;;3.05;1.92;;;8.80;99.90;;;;;;5345460;26;20001;-77
2024/04/17 07:35:12;;;;;;;3.80;1.83;;;8.70;99.90;;;;;;5315603;26;20009;-76
2024/04/17 07:37:37;;;;;;;3.25;1.75;;;8.70;99.90;;;;;;5315513;26;20011;-76
2024/04/17 07:40:04;;;;;;;4.70;2.00;;;8.70;99.90;;;;;;5345197;26;20405;-76
2024/04/17 07:42:29;;;;;;;3.60;2.15;;;8.70;99.90;;;;;;5345800;26;20005;-76
2024/04/17 07:44:55;;;;;;;3.42;1.73;;;8.80;99.90;;;;;;5314841;26;20000;-76
2024/04/17 07:47:21;;;;;;;5.35;2.10;;;8.80;99.90;;;;;;5345902;26;19997;-76
2024/04/17 07:49:46;;;;;;;4.90;1.98;;;8.90;99.90;;;;;;5314813;26;20005;-77
2024/04/17 07:52:13;;;;;;;5.53;1.98;;;8.90;99.90;;;;;;5345613;26;20100;-76
2024/04/17 07:54:38;;;;;;;4.90;2.28;;;8.90;99.90;;;;;;5315298;26;20087;-76
2024/04/17 07:57:04;;;;;;;2.60;1.58;;;9.00;99.90;;;;;;5314660;26;20441;-75
2024/04/17 07:59:30;;;;;;;5.85;2.30;;;9.00;99.90;;;;;;5345772;26;20007;-76
2024/04/17 08:01:55;;;;;;;7.70;1.90;;;8.90;99.90;;;;;;5314721;26;20511;-75
2024/04/17 08:04:21;;;;;;;4.40;2.30;;;8.90;99.90;;;;;;5345290;26;19992;-76
2024/04/17 08:06:46;;;;;;;3.70;1.73;;;9.00;99.90;;;;;;5314317;26;20091;-76
2024/04/17 08:09:12;;;;;;;3.05;1.50;;;9.10;99.90;;;;;;5315140;26;19997;-76
2024/04/17 08:11:37;;;;;;;6.43;2.20;;;9.10;99.90;;;;;;5347437;26;20326;-76
2024/04/17 08:14:03;;;;;;;5.65;1.90;;;9.10;99.90;;;;;;5317844;26;19993;-77
2024/04/17 08:16:29;;;;;;;3.83;1.60;;;9.10;99.90;;;;;;5318344;26;19996;-76
2024/04/17 08:18:55;;;;;;;4.30;2.03;;;9.10;99.90;;;;;;5348278;26;20001;-77
2024/04/17 08:21:23;;;;;;;3.85;2.05;;;9.10;99.90;;;;;;5348909;26;20001;-76
2024/04/17 08:23:49;;;;;;;6.95;2.10;;;9.10;99.90;;;;;;5317569;26;19993;-77
2024/04/17 08:26:14;;;;;;;4.68;2.20;;;9.10;99.90;;;;;;5318563;26;20492;-77
2024/04/17 08:28:40;;;;;;;5.57;2.28;;;9.20;99.90;;;;;;5318714;26;20480;-76
2024/04/17 08:31:06;;;;;;;5.07;2.15;;;9.30;99.90;;;;;;5317774;26;20012;-77
2024/04/17 08:33:31;;;;;;;6.28;2.15;;;9.30;99.90;;;;;;5348672;26;20359;-77
2024/04/17 08:35:57;;;;;;;5.95;1.88;;;9.30;99.90;;;;;;5317713;26;19996;-76
2024/04/17 08:38:23;;;;;;;6.57;1.98;;;9.20;99.90;;;;;;5318389;26;19997;-76
2024/04/17 08:40:51;;;;;;;5.85;2.08;;;9.20;99.90;;;;;;5348226;26;20341;-77
2024/04/17 08:43:24;;;;;;;5.03;2.75;;;9.30;99.90;;;;;;5348672;26;20437;-77
2024/04/17 08:45:53;;;;;;;6.10;2.50;;;9.40;99.90;;;;;;5317792;26;19997;-77
2024/04/17 08:48:20;;;;;;;4.88;2.28;;;9.40;99.90;;;;;;5348734;26;20004;-77
2024/04/17 08:50:46;;;;;;;8.75;3.28;;;9.30;99.90;;;;;;5348384;26;19992;-77
2024/04/17 08:53:13;;;;;;;6.50;2.28;;;9.40;99.90;;;;;;5318087;26;20019;-77
2024/04/17 08:55:41;;;;;;;7.45;2.72;;;9.30;99.90;;;;;;5318194;26;20303;-77
2024/04/17 08:58:07;;;;;;;4.35;2.30;;;9.20;99.90;;;;;;5317792;26;20000;-77
2024/04/17 09:00:37;;;;;;;4.85;2.38;;;9.30;99.90;;;;;;5318167;26;20001;-77
2024/04/17 09:03:15;;;;;;;5.07;2.22;;;9.20;99.90;;;;;;5347655;26;20079;-77
2024/04/17 09:05:41;;;;;;;5.30;2.38;;;9.20;99.90;;;;;;5348934;26;19989;-77
2024/04/17 09:08:08;;;;;;;5.78;2.38;;;9.30;99.90;;;;;;5317792;26;19997;-77
2024/04/17 09:10:34;;;;;;;5.05;2.83;;;9.30;99.90;;;;;;5348986;26;19997;-77
2024/04/17 09:13:01;;;;;;;5.03;2.60;;;9.40;99.90;;;;;;5348060;26;20001;-77
2024/04/17 09:15:27;;;;;;;7.35;3.40;;;9.50;99.90;;;;;;5318295;26;20008;-77
2024/04/17 09:17:54;;;;;;;8.10;3.10;;;9.60;99.90;;;;;;5317547;26;20007;-77
2024/04/17 09:20:20;;;;;;;7.07;3.17;;;9.60;99.90;;;;;;5348587;26;20008;-77
2024/04/17 09:22:46;;;;;;;9.07;3.60;;;9.70;99.90;;;;;;5347320;26;20325;-77
2024/04/17 09:25:13;;;;;;;6.53;3.35;;;9.70;99.90;;;;;;5318083;26;20060;-77
2024/04/17 09:27:39;;;;;;;7.88;3.15;;;9.80;99.90;;;;;;5348671;26;20000;-77
2024/04/17 09:30:05;;;;;;;6.38;3.33;;;10.00;99.90;;;;;;5317318;26;19997;-77
2024/04/17 09:32:32;;;;;;;4.78;2.42;;;10.10;99.90;;;;;;5317840;26;20005;-77
2024/04/17 09:34:59;;;;;;;3.30;2.83;;;10.00;99.90;;;;;;5317237;26;20001;-77
2024/04/17 09:37:25;;;;;;;6.72;2.90;;;10.00;99.90;;;;;;5317582;26;20067;-77
2024/04/17 09:39:51;;;;;;;4.25;2.75;;;10.00;99.90;;;;;;5317683;26;20008;-76
2024/04/17 09:42:16;;;;;;;8.35;2.80;;;10.10;99.90;;;;;;5348353;26;19993;-77
2024/04/17 09:44:45;;;;;;;4.47;3.10;;;10.10;99.90;;;;;;5318228;26;20008;-77
2024/04/17 09:47:11;;;;;;;6.82;2.80;;;10.10;99.90;;;;;;5347924;26;19996;-77
2024/04/17 09:49:43;;;;;;;7.68;2.60;;;10.20;99.90;;;;;;5348405;26;20425;-77
2024/04/17 09:52:11;;;;;;;5.03;2.58;;;10.20;99.90;;;;;;5347833;26;20061;-77
2024/04/17 09:54:37;;;;;;;6.10;2.90;;;10.20;99.90;;;;;;5317770;26;20044;-76
2024/04/17 09:57:04;;;;;;;3.63;2.42;;;10.20;99.90;;;;;;5317113;26;20429;-77
2024/04/17 09:59:31;;;;;;;5.75;2.80;;;10.40;99.90;;;;;;5348347;26;20000;-77
2024/04/17 10:01:58;;;;;;;6.25;2.50;;;10.50;99.90;;;;;;5316759;26;19993;-77
2024/04/17 10:04:25;;;;;;;4.95;2.50;;;10.60;99.90;;;;;;5348020;26;20009;-77
2024/04/17 10:06:52;;;;;;;4.68;2.60;;;10.80;99.90;;;;;;5316628;26;20442;-77
2024/04/17 10:09:19;;;;;;;8.35;2.30;;;10.90;99.90;;;;;;5317400;26;20074;-77
2024/04/17 10:11:48;;;;;;;6.50;2.45;;;11.00;99.90;;;;;;5347626;26;19993;-77
2024/04/17 10:14:14;;;;;;;8.60;2.40;;;11.00;99.90;;;;;;5317361;26;20000;-77
2024/04/17 10:16:40;;;;;;;4.32;2.40;;;11.10;99.90;;;;;;5347825;26;19992;-77
2024/04/17 10:19:06;;;;;;;6.20;2.63;;;11.10;99.90;;;;;;5316621;26;20364;-77
2024/04/17 10:21:35;;;;;;;3.55;2.45;;;11.20;99.90;;;;;;5317290;26;19993;-77
2024/04/17 10:24:11;;;;;;;7.97;3.40;;;11.20;99.90;;;;;;5316373;26;19996;-77
2024/04/17 10:26:46;;;;;;;5.57;2.60;;;11.30;99.90;;;;;;5317260;26;20516;-77
2024/04/17 10:29:29;;;;;;;6.05;2.30;;;11.40;99.90;;;;;;5316545;26;19996;-77
2024/04/17 10:32:02;;;;;;;8.57;2.67;;;11.40;99.90;;;;;;5346911;26;20070;-77
2024/04/17 10:34:30;;;;;;;3.90;2.13;;;11.50;99.90;;;;;;5315267;26;19997;-77
2024/04/17 10:37:00;;;;;;;3.83;2.13;;;11.70;99.90;;;;;;5316557;26;20001;-77
2024/04/17 10:39:27;;;;;;;4.53;2.63;;;11.70;99.60;;;;;;5317030;26;19997;-77
2024/04/17 10:41:53;;;;;;;4.50;2.40;;;11.60;99.50;;;;;;5316166;26;20005;-77
2024/04/17 10:44:22;;;;;;;8.48;2.10;;;11.40;99.10;;;;;;5316909;26;20031;-75
2024/04/17 10:46:47;;;;;;;5.95;2.25;;;11.20;99.10;;;;;;5347050;26;20457;-78
2024/04/17 10:49:17;;;;;;;5.28;1.98;;;11.20;99.40;;;;;;5346352;26;20001;-78
2024/04/17 10:51:44;;;;;;;3.40;2.03;;;11.10;99.30;;;;;;5316601;26;20024;-78
2024/04/17 10:54:13;;;;;;;7.32;2.13;;;11.00;99.10;;;;;;5346367;26;19996;-78
2024/04/17 10:56:39;;;;;;;4.82;1.88;;;11.00;99.40;;;;;;5346999;26;20007;-78
2024/04/17 10:59:04;;;;;;;5.95;1.67;;;11.00;98.60;;;;;;5316017;26;19997;-78
2024/04/17 11:01:31;;;;;;;4.13;2.00;;;11.10;97.70;;;;;;5346843;26;20071;-78
2024/04/17 11:04:00;;;;;;;2.65;1.52;;;11.10;97.10;;;;;;5316114;26;20001;-75
2024/04/17 11:06:25;;;;;;;4.85;1.60;;;11.10;97.10;;;;;;5316235;26;20333;-75
2024/04/17 11:08:55;;;;;;;3.75;1.67;;;11.20;96.90;;;;;;5316643;26;20043;-75
2024/04/17 11:11:21;;;;;;;5.57;1.70;;;11.30;96.80;;;;;;5316304;26;20021;-75
2024/04/17 11:13:47;;;;;;;4.57;1.85;;;11.40;96.20;;;;;;5316546;26;20005;-75
2024/04/17 11:16:13;;;;;;;3.70;2.00;;;11.40;95.90;;;;;;5315710;26;19993;-75
2024/04/17 11:18:39;;;;;;;4.00;2.10;;;11.30;95.40;;;;;;5316281;26;19997;-75
2024/04/17 11:21:05;;;;;;;4.63;1.60;;;11.30;96.00;;;;;;5315465;26;19989;-78
2024/04/17 11:23:42;;;;;;;3.70;1.77;;;11.30;95.40;;;;;;5346542;26;20020;-76
2024/04/17 11:26:08;;;;;;;4.82;2.00;;;11.30;95.20;;;;;;5315466;26;19999;-76
2024/04/17 11:28:34;;;;;;;5.03;2.08;;;11.20;97.40;;;;;;5346898;26;20001;-75
2024/04/17 11:31:00;;;;;;;3.22;2.28;;;11.10;98.70;;;;;;5315557;26;19989;-76
2024/04/17 11:33:29;;;;;;;4.93;2.10;;;11.00;99.40;;;;;;5346794;26;20070;-76
2024/04/17 11:36:08;;;;;;;4.05;2.00;;;11.00;99.90;;;;;;5315416;26;20005;-76
2024/04/17 11:38:34;;;;;;;2.40;1.40;;;11.00;99.30;;;;;;5316500;26;20001;-76
2024/04/17 11:41:01;;;;;;;4.00;1.73;;;11.00;99.10;;;;;;5346060;26;19997;-76
2024/04/17 11:43:27;;;;;;;4.97;1.70;;;11.00;99.60;;;;;;5316444;26;20070;-76
2024/04/17 11:45:52;;;;;;;3.28;1.75;;;11.00;99.40;;;;;;5347797;26;20009;-77
2024/04/17 11:48:18;;;;;;;3.45;2.00;;;11.00;99.70;;;;;;5349496;26;20008;-77
2024/04/17 11:50:44;;;;;;;5.53;2.15;;;10.90;99.90;;;;;;5319423;26;19997;-76
2024/04/17 11:53:09;;;;;;;3.78;2.17;;;10.90;99.90;;;;;;5319168;26;19996;-76
2024/04/17 11:55:35;;;;;;;6.35;2.20;;;11.10;99.90;;;;;;5349951;26;20164;-76
2024/04/17 11:58:01;;;;;;;8.13;2.22;;;11.00;99.90;;;;;;5349142;26;20004;-76
2024/04/17 12:00:26;;;;;;;2.92;2.00;;;11.00;99.90;;;;;;5319437;26;19997;-76
2024/04/17 12:02:52;;;;;;;2.90;1.90;;;11.00;99.90;;;;;;5319338;26;20092;-75
2024/04/17 12:05:17;;;;;;;2.30;1.65;;;11.20;99.90;;;;;;5318310;26;20348;-75
2024/04/17 12:07:43;;;;;;;6.80;1.90;;;11.10;99.90;;;;;;5349387;26;19993;-75
2024/04/17 12:10:08;;;;;;;3.90;1.95;;;11.00;99.90;;;;;;5348898;26;20072;-75
2024/04/17 12:12:35;;;;;;;3.08;1.90;;;11.00;99.90;;;;;;5318798;26;19997;-75
2024/04/17 12:15:00;;;;;;;3.67;2.08;;;11.00;99.90;;;;;;5348440;26;20005;-75
2024/04/17 12:17:26;;;;;;;5.55;1.70;;;11.00;99.90;;;;;;5318825;26;20437;-75
2024/04/17 12:19:52;;;;;;;2.70;1.65;;;11.10;99.90;;;;;;5348886;26;19997;-75
2024/04/17 12:22:18;;;;;;;2.15;1.48;;;11.20;99.90;;;;;;5318408;26;20442;-75
2024/04/17 12:27:29;;;;;;;3.50;1.70;;;11.40;99.00;;;;;;5349566;26;20008;-78
2024/04/17 12:29:55;;;;;;;2.38;1.52;;;11.40;98.10;;;;;;5318502;26;20033;-74
2024/04/17 12:32:20;;;;;;;3.78;1.70;;;11.60;97.60;;;;;;5348184;26;20008;-74
2024/04/17 12:34:46;;;;;;;3.00;1.83;;;11.90;97.40;;;;;;5318383;26;20012;-75
2024/04/17 12:37:13;;;;;;;2.97;1.40;;;12.10;96.70;;;;;;5348561;26;19993;-78
2024/04/17 12:39:40;;;;;;;5.38;1.70;;;12.20;96.90;;;;;;5348612;26;20032;-75
2024/04/17 12:42:05;;;;;;;5.28;1.40;;;12.20;97.00;;;;;;5317891;26;20025;-78
2024/04/17 12:44:31;;;;;;;4.15;1.80;;;12.40;97.00;;;;;;5348543;26;20400;-76
2024/04/17 12:46:57;;;;;;;2.97;1.38;;;12.50;96.00;;;;;;5318414;26;19996;-76
2024/04/17 12:49:22;;;;;;;4.18;1.50;;;12.60;95.90;;;;;;5317712;26;20008;-75
2024/04/17 12:51:49;;;;;;;4.93;1.90;;;12.60;95.30;;;;;;5318565;26;19993;-75